DABB/AAE METAR and TAF weather

Enter ICAO airport designator
Station Type Date Time Source
DABB METAR 2021/08/01 16:00 UTC NOAA

DABB 011600Z 01016KT 9999 FEW026 30/22 Q1013


Station Type Date Time Source
DABB Decoded METAR 2021/08/01 16:00 UTC NOAA

Annaba, Algeria (DABB) 36-50N 007-49E 4M
Aug 01, 2021 - 12:00 PM EDT / 2021.08.01 1600 UTC
Wind: from the N (010 degrees) at 18 MPH (16 KT):0
Visibility: greater than 7 mile(s):0
Sky conditions: mostly clear
Temperature: 86 F (30 C)
Heat index: 91.8 F (33.2 C):1
Dew Point: 71 F (22 C)
Relative Humidity: 62%
Pressure (altimeter): 29.91 in. Hg (1013 hPa)
ob: DABB 011600Z 01016KT 9999 FEW026 30/22 Q1013
cycle: 16

Station Type Date Time Source
DABB TAF 2021/08/01 12:33 UTC NOAA

TAF DABB 011100Z 0112/0212 35008KT 9999 FEW033 PROB40
TEMPO 0112/0120 34012KT FEW023TCU

Example: see airport list